Time;durP1;ratioP1;P1;durP2;ratioP2;P2;SDS_P1;SDS_P2;PMS_P1;PMS_P2;Temp;Humidity;BMP_temperature;BMP_pressure;BME280_temperature;BME280_humidity;BME280_pressure;Samples;Min_cycle;Max_cycle;Signal;HPM_P1;HPM_P2
2023/05/12 00:01:23;;;;;;;4.03;1.40;;;;;;;20.16;65.71;100035.00;5066492;28;20187;-62
2023/05/12 00:03:48;;;;;;;5.93;1.53;;;;;;;20.16;66.01;100035.00;5067306;28;20711;-62
2023/05/12 00:06:14;;;;;;;3.77;1.50;;;;;;;20.15;65.92;100028.44;5067911;28;20190;-61
2023/05/12 00:08:39;;;;;;;4.57;1.37;;;;;;;20.15;66.02;100028.44;5068720;28;20205;-62
2023/05/12 00:11:05;;;;;;;2.70;1.40;;;;;;;20.15;65.82;100024.75;5069322;28;20186;-62
2023/05/12 00:13:30;;;;;;;5.90;1.40;;;;;;;20.14;66.03;100032.53;5068394;28;20179;-61
2023/05/12 00:15:57;;;;;;;4.87;1.63;;;;;;;20.15;65.82;100028.44;5069553;28;20193;-62
2023/05/12 00:18:23;;;;;;;3.23;1.53;;;;;;;20.14;66.18;100029.69;5068205;28;20231;-61
2023/05/12 00:20:48;;;;;;;3.80;1.30;;;;;;;20.13;66.10;100028.03;5068211;28;20431;-61
2023/05/12 00:23:15;;;;;;;3.10;1.60;;;;;;;20.14;66.03;100021.06;5066507;28;20206;-61
2023/05/12 00:25:40;;;;;;;3.37;1.27;;;;;;;20.13;66.33;100022.31;5067561;28;21231;-61
2023/05/12 00:28:06;;;;;;;2.90;1.60;;;;;;;20.15;66.11;100024.75;5067335;28;20615;-62
2023/05/12 00:30:31;;;;;;;3.27;1.60;;;;;;;20.15;66.36;100021.88;5066520;28;20549;-61
2023/05/12 00:32:57;;;;;;;2.77;1.40;;;;;;;20.13;66.21;100018.59;5052147;28;20321;-62
2023/05/12 00:35:23;;;;;;;5.80;1.90;;;;;;;20.12;66.35;100017.78;5066228;28;20187;-62
2023/05/12 00:37:48;;;;;;;4.07;1.60;;;;;;;20.12;66.20;100017.78;5029217;28;20449;-61
2023/05/12 00:40:13;;;;;;;4.80;1.57;;;;;;;20.13;66.04;100019.44;5029339;28;20223;-62
2023/05/12 00:42:39;;;;;;;2.27;1.40;;;;;;;20.12;66.34;100017.78;5042384;28;20262;-62
2023/05/12 00:45:05;;;;;;;3.00;1.43;;;;;;;20.12;66.33;100023.50;5068040;28;20596;-61
2023/05/12 00:47:31;;;;;;;6.10;1.40;;;;;;;20.12;66.20;100022.69;5067245;28;20194;-61
2023/05/12 00:49:56;;;;;;;4.40;1.70;;;;;;;20.11;66.42;100010.41;5049893;28;20425;-62
2023/05/12 00:52:21;;;;;;;3.67;1.80;;;;;;;20.11;66.18;100007.53;5068133;28;20179;-61
2023/05/12 00:54:47;;;;;;;2.20;1.20;;;;;;;20.11;66.49;100012.47;5066581;28;20190;-62
2023/05/12 00:57:12;;;;;;;6.40;1.53;;;;;;;20.10;66.36;100011.63;5067400;28;20187;-62
2023/05/12 00:59:38;;;;;;;3.23;1.83;;;;;;;20.11;66.62;100010.41;5049962;28;20195;-61
2023/05/12 01:02:04;;;;;;;2.53;1.53;;;;;;;20.10;66.38;100008.75;5066754;28;20186;-61
2023/05/12 01:04:30;;;;;;;3.50;1.63;;;;;;;20.11;66.56;100019.00;5050229;28;20179;-61
2023/05/12 01:06:58;;;;;;;3.87;1.63;;;;;;;20.11;66.60;100016.13;5067386;28;20437;-62
2023/05/12 01:09:24;;;;;;;3.30;1.27;;;;;;;20.10;66.38;100008.75;5066556;28;20209;-61
2023/05/12 01:11:49;;;;;;;3.80;1.70;;;;;;;20.10;66.46;100007.94;5067456;28;20433;-61
2023/05/12 01:14:15;;;;;;;2.90;1.40;;;;;;;20.11;66.68;100009.59;5067809;28;20182;-61
2023/05/12 01:16:44;;;;;;;2.70;1.40;;;;;;;20.10;66.71;100008.75;5066009;28;20244;-61
2023/05/12 01:19:17;;;;;;;2.37;1.20;;;;;;;20.09;66.65;100007.13;5032499;28;20195;-61
2023/05/12 01:21:43;;;;;;;3.23;1.33;;;;;;;20.10;66.40;100011.63;5047664;28;20489;-61
2023/05/12 01:24:08;;;;;;;5.17;1.20;;;;;;;20.09;66.84;100009.97;5036408;28;20471;-62
2023/05/12 01:26:34;;;;;;;1.93;1.23;;;;;;;20.11;66.75;100012.47;5067270;28;20179;-61
2023/05/12 01:29:00;;;;;;;4.13;1.57;;;;;;;20.09;66.75;100007.13;5048543;28;20163;-62
2023/05/12 01:31:26;;;;;;;2.30;1.30;;;;;;;20.09;66.74;100007.13;5033296;28;20459;-62
2023/05/12 01:33:51;;;;;;;3.87;1.33;;;;;;;20.09;66.78;100014.88;5048866;28;20183;-62
2023/05/12 01:36:17;;;;;;;2.63;1.50;;;;;;;20.08;66.84;100014.09;5048674;28;20225;-61
2023/05/12 01:38:42;;;;;;;2.27;1.40;;;;;;;20.08;66.72;100011.22;5069755;28;20187;-61
2023/05/12 01:41:07;;;;;;;3.03;1.10;;;;;;;20.09;66.63;100015.72;5070318;28;20962;-62
2023/05/12 01:43:33;;;;;;;2.20;1.30;;;;;;;20.08;66.76;100011.22;5053537;28;20708;-61
2023/05/12 01:45:58;;;;;;;2.20;1.30;;;;;;;20.07;66.90;100015.28;5071029;28;20638;-61
2023/05/12 01:48:24;;;;;;;2.37;1.30;;;;;;;20.08;66.81;100019.81;5070813;28;20151;-62
2023/05/12 01:50:49;;;;;;;5.73;1.70;;;;;;;20.08;67.03;100018.97;5053128;28;20183;-62
2023/05/12 01:53:15;;;;;;;6.30;1.10;;;;;;;20.07;66.85;100023.03;5071371;28;20159;-62
2023/05/12 01:55:40;;;;;;;2.80;1.80;;;;;;;20.07;66.53;100015.28;5070614;28;20171;-61
2023/05/12 01:58:06;;;;;;;3.63;1.53;;;;;;;20.06;66.84;100016.47;5069758;28;20258;-62
2023/05/12 02:00:31;;;;;;;3.53;1.10;;;;;;;20.07;66.77;100017.31;5073593;28;20202;-61
2023/05/12 02:02:57;;;;;;;3.10;1.53;;;;;;;20.07;66.98;100020.16;5070371;28;20206;-61
2023/05/12 02:05:22;;;;;;;2.63;1.50;;;;;;;20.07;66.92;100014.44;5069277;28;20304;-62
2023/05/12 02:07:47;;;;;;;2.53;1.30;;;;;;;20.07;67.00;100015.28;5070923;28;20215;-61
2023/05/12 02:10:13;;;;;;;2.33;1.30;;;;;;;20.06;66.87;100019.34;5069687;28;20183;-62
2023/05/12 02:12:38;;;;;;;2.53;1.47;;;;;;;20.06;66.79;100013.59;5072536;28;20171;-61
2023/05/12 02:15:05;;;;;;;4.00;1.37;;;;;;;20.07;67.10;100015.28;5068754;28;20630;-62
2023/05/12 02:17:30;;;;;;;4.10;1.30;;;;;;;20.06;66.85;100025.06;5067908;28;20234;-62
2023/05/12 02:19:55;;;;;;;2.50;1.20;;;;;;;20.06;66.97;100013.59;5069861;28;20456;-62
2023/05/12 02:22:21;;;;;;;2.30;1.30;;;;;;;20.05;67.00;100009.09;5070391;28;20179;-61
2023/05/12 02:24:46;;;;;;;2.20;1.30;;;;;;;20.05;67.03;100009.09;5069114;28;20233;-61
2023/05/12 02:27:12;;;;;;;1.83;1.10;;;;;;;20.05;66.95;100006.22;5069989;28;20182;-61
2023/05/12 02:29:37;;;;;;;3.00;0.90;;;;;;;20.05;66.80;100014.84;5070454;28;20167;-61
2023/05/12 02:32:04;;;;;;;2.30;1.30;;;;;;;20.05;67.03;100011.97;5070810;28;20179;-61
2023/05/12 02:34:29;;;;;;;2.77;1.20;;;;;;;20.05;66.86;100011.97;5070730;28;20182;-61
2023/05/12 02:36:55;;;;;;;2.00;1.10;;;;;;;20.04;66.99;100009.50;5081936;28;20433;-61
2023/05/12 02:39:20;;;;;;;3.00;1.03;;;;;;;20.05;66.90;100009.09;5052674;28;20199;-62
2023/05/12 02:41:46;;;;;;;2.07;1.30;;;;;;;20.04;67.05;100016.06;5070175;28;20166;-61
2023/05/12 02:44:11;;;;;;;2.43;1.37;;;;;;;20.04;67.16;100004.59;5068887;28;20179;-61
2023/05/12 02:46:37;;;;;;;2.17;1.47;;;;;;;20.04;67.10;100010.31;5069590;28;20187;-62
2023/05/12 02:49:03;;;;;;;2.47;1.50;;;;;;;20.04;67.28;100003.75;5067876;28;20183;-62
2023/05/12 02:51:29;;;;;;;3.10;1.07;;;;;;;20.03;67.30;100002.97;5069454;28;20416;-62
2023/05/12 02:53:54;;;;;;;3.83;1.23;;;;;;;20.03;66.99;100000.09;5070121;28;20223;-62
2023/05/12 02:56:21;;;;;;;4.23;1.83;;;;;;;20.03;67.01;100002.97;5050212;28;20437;-61
2023/05/12 02:58:46;;;;;;;2.17;1.23;;;;;;;20.03;67.31;100002.13;5069375;28;20203;-62
2023/05/12 03:01:12;;;;;;;3.53;2.40;;;;;;;20.03;67.46;100008.69;5069580;28;20459;-62
2023/05/12 03:03:37;;;;;;;2.90;1.23;;;;;;;20.02;67.33;99998.41;5068752;28;20171;-62
2023/05/12 03:06:03;;;;;;;3.00;1.47;;;;;;;20.02;67.38;100007.03;5051320;28;20189;-61
2023/05/12 03:08:29;;;;;;;2.90;1.03;;;;;;;20.02;67.07;100001.28;5051859;28;20192;-62
2023/05/12 03:10:54;;;;;;;2.10;1.10;;;;;;;20.02;67.08;100004.16;5068370;28;20179;-61
2023/05/12 03:13:41;;;;;;;3.07;1.37;;;;;;;20.02;67.38;100007.03;5069598;28;20163;-61
2023/05/12 03:16:06;;;;;;;1.90;1.27;;;;;;;20.02;67.13;100003.34;5070998;28;20617;-62
2023/05/12 03:18:32;;;;;;;3.60;1.20;;;;;;;20.02;67.07;100004.16;5069918;28;20473;-62
2023/05/12 03:20:57;;;;;;;2.00;1.10;;;;;;;20.02;67.13;100009.09;5069599;28;20172;-61
2023/05/12 03:23:23;;;;;;;3.03;1.10;;;;;;;20.02;67.43;100000.47;5068544;28;20187;-62
2023/05/12 03:25:48;;;;;;;2.70;1.40;;;;;;;20.01;67.34;100002.50;5068655;28;20170;-62
2023/05/12 03:28:14;;;;;;;2.27;1.30;;;;;;;20.02;67.20;99997.63;5068167;28;20225;-61
2023/05/12 03:30:39;;;;;;;2.33;1.47;;;;;;;20.00;67.31;99998.00;5068974;28;20188;-62
2023/05/12 03:33:05;;;;;;;2.40;1.23;;;;;;;20.01;67.32;100002.50;5069346;28;20225;-62
2023/05/12 03:35:30;;;;;;;3.80;1.63;;;;;;;20.01;67.31;99998.84;5067877;28;20175;-61
2023/05/12 03:37:56;;;;;;;2.03;1.40;;;;;;;20.01;67.04;100007.44;5069274;28;21054;-62
2023/05/12 03:40:21;;;;;;;1.70;1.10;;;;;;;20.01;67.27;100016.84;5068151;28;20276;-62
2023/05/12 03:42:47;;;;;;;1.87;1.00;;;;;;;20.01;67.10;100002.50;5068573;28;20213;-62
2023/05/12 03:45:12;;;;;;;3.30;1.30;;;;;;;20.00;67.17;100006.59;5067902;28;20788;-61
2023/05/12 03:47:39;;;;;;;2.80;1.40;;;;;;;20.00;67.30;100006.59;5050676;28;20555;-61
2023/05/12 03:50:06;;;;;;;1.90;1.20;;;;;;;20.00;67.14;100006.59;5069046;28;20178;-61
2023/05/12 03:52:31;;;;;;;2.03;1.20;;;;;;;20.01;67.49;100005.38;5068096;28;20444;-61
2023/05/12 03:54:57;;;;;;;2.13;1.10;;;;;;;20.01;67.52;99998.84;5049644;28;21148;-62
2023/05/12 03:57:22;;;;;;;2.57;1.37;;;;;;;20.00;67.37;99997.16;5064700;28;20183;-62
2023/05/12 03:59:48;;;;;;;2.37;1.30;;;;;;;19.99;67.27;99993.50;5049639;28;20203;-62
2023/05/12 04:02:13;;;;;;;2.10;1.40;;;;;;;19.99;67.28;99999.25;5065956;28;20190;-61
2023/05/12 04:04:39;;;;;;;2.30;1.20;;;;;;;20.00;67.37;99988.56;5067377;28;20182;-62
2023/05/12 04:07:04;;;;;;;2.33;1.20;;;;;;;19.99;67.23;99998.41;5068902;28;20201;-61
2023/05/12 04:09:31;;;;;;;1.97;1.03;;;;;;;19.99;67.44;99992.66;5067483;28;20202;-61
2023/05/12 04:11:56;;;;;;;2.43;1.70;;;;;;;19.98;67.53;99993.91;5068679;28;20171;-62
2023/05/12 04:14:22;;;;;;;2.40;1.20;;;;;;;19.99;67.26;99996.38;5067340;28;20490;-62
2023/05/12 04:16:47;;;;;;;1.93;1.13;;;;;;;19.98;67.30;99991.03;5067080;28;20336;-62
2023/05/12 04:19:13;;;;;;;1.80;1.13;;;;;;;19.98;67.46;99993.91;5068070;28;20199;-61
2023/05/12 04:21:38;;;;;;;2.13;1.30;;;;;;;19.98;67.46;99997.59;5068034;28;20228;-62
2023/05/12 04:24:04;;;;;;;2.43;1.47;;;;;;;19.98;67.36;99997.59;5046918;28;20194;-62
2023/05/12 04:26:29;;;;;;;1.80;0.90;;;;;;;19.98;67.49;99994.72;5066786;28;20186;-61
2023/05/12 04:28:55;;;;;;;1.67;0.93;;;;;;;19.98;67.40;100003.31;5049145;28;20175;-62
2023/05/12 04:31:20;;;;;;;1.80;1.20;;;;;;;19.97;67.90;99993.06;5049110;28;20195;-62
2023/05/12 04:33:46;;;;;;;2.27;1.10;;;;;;;19.98;67.57;99993.91;5068417;28;20175;-62
2023/05/12 04:36:12;;;;;;;2.30;1.20;;;;;;;19.97;67.62;99998.78;5067094;28;20174;-61
2023/05/12 04:38:39;;;;;;;2.20;1.00;;;;;;;19.98;67.54;99994.72;5067483;28;20710;-62
2023/05/12 04:41:05;;;;;;;2.10;1.10;;;;;;;19.97;67.34;100004.53;5070804;28;20424;-61
2023/05/12 04:43:30;;;;;;;2.03;1.20;;;;;;;19.97;66.98;99998.78;5065984;28;20428;-62
2023/05/12 04:45:56;;;;;;;2.17;1.33;;;;;;;19.97;67.42;100006.59;5049780;28;20178;-61
2023/05/12 04:48:21;;;;;;;1.77;1.00;;;;;;;19.97;67.59;100003.72;5066748;28;20171;-62
2023/05/12 04:50:47;;;;;;;2.67;1.20;;;;;;;19.97;67.38;100001.66;5065990;28;20190;-61
2023/05/12 04:53:14;;;;;;;3.20;1.40;;;;;;;19.97;67.56;100003.72;5050017;28;20667;-61
2023/05/12 04:55:40;;;;;;;1.80;0.97;;;;;;;19.98;67.39;100017.66;5067865;28;20713;-60
2023/05/12 04:58:05;;;;;;;1.80;1.00;;;;;;;19.96;67.26;100008.63;5066773;28;20437;-60
2023/05/12 05:00:31;;;;;;;2.50;1.30;;;;;;;19.97;67.28;100018.03;5066997;28;20187;-60
2023/05/12 05:02:56;;;;;;;2.20;1.10;;;;;;;19.97;67.48;100015.19;5067747;28;20191;-60
2023/05/12 05:05:22;;;;;;;1.90;1.20;;;;;;;19.97;67.36;100020.91;5067488;28;20182;-61
2023/05/12 05:07:47;;;;;;;2.53;1.30;;;;;;;19.97;67.46;100027.44;5048398;28;20210;-61
2023/05/12 05:10:13;;;;;;;2.37;1.30;;;;;;;19.96;67.45;100020.06;5049904;28;20191;-61
2023/05/12 05:12:38;;;;;;;2.90;1.30;;;;;;;19.96;67.49;100020.06;5067957;28;20182;-61
2023/05/12 05:15:05;;;;;;;1.70;1.00;;;;;;;19.96;67.52;100034.41;5053973;28;20163;-61
2023/05/12 05:17:30;;;;;;;7.10;1.63;;;;;;;19.96;67.36;100031.53;5072297;28;20269;-61
2023/05/12 05:19:55;;;;;;;3.10;1.20;;;;;;;19.95;67.40;100035.63;5071353;28;20452;-61
2023/05/12 05:22:21;;;;;;;1.60;0.93;;;;;;;19.96;67.58;100031.53;5052751;28;20186;-61
2023/05/12 05:24:48;;;;;;;1.80;1.10;;;;;;;19.96;67.71;100036.47;5070160;28;20179;-61
2023/05/12 05:27:13;;;;;;;1.77;0.93;;;;;;;19.95;67.43;100038.50;5052011;28;20191;-61
2023/05/12 05:29:38;;;;;;;1.63;1.03;;;;;;;19.95;67.50;100041.38;5069712;28;20417;-60
2023/05/12 05:32:04;;;;;;;2.97;1.00;;;;;;;19.96;67.58;100037.28;5070310;28;20190;-61
2023/05/12 05:34:30;;;;;;;2.23;1.20;;;;;;;19.95;67.44;100044.22;5053234;28;20175;-60
2023/05/12 05:36:55;;;;;;;1.87;1.07;;;;;;;19.94;67.52;100036.03;5069577;28;20194;-61
2023/05/12 05:39:21;;;;;;;1.97;1.20;;;;;;;19.95;67.44;100041.38;5069753;28;20206;-61
2023/05/12 05:41:46;;;;;;;1.87;1.07;;;;;;;19.94;67.70;100042.59;5071034;28;20228;-60
2023/05/12 05:44:12;;;;;;;1.73;1.00;;;;;;;19.94;67.50;100039.72;5069552;28;20437;-61
2023/05/12 05:46:37;;;;;;;1.70;1.00;;;;;;;19.95;67.84;100043.38;5069747;28;20183;-62
2023/05/12 05:49:03;;;;;;;2.00;1.20;;;;;;;19.95;67.73;100043.38;5070272;28;20171;-61
2023/05/12 05:51:28;;;;;;;1.63;1.00;;;;;;;19.94;67.53;100038.88;5067878;28;20183;-61
2023/05/12 05:53:54;;;;;;;3.40;1.20;;;;;;;19.94;67.42;100039.72;5086375;28;20187;-62
2023/05/12 05:56:19;;;;;;;4.43;1.10;;;;;;;19.95;67.41;100040.53;5090449;28;20630;-61
2023/05/12 05:58:45;;;;;;;1.77;1.00;;;;;;;19.95;67.74;100044.22;5072527;28;20659;-63
2023/05/12 06:01:10;;;;;;;2.23;1.43;;;;;;;20.03;67.37;100043.06;5082805;28;20626;-62
2023/05/12 06:03:36;;;;;;;9.03;6.03;;;;;;;20.19;68.76;100035.03;5069249;28;20183;-63
2023/05/12 06:06:01;;;;;;;11.03;8.03;;;;;;;20.49;68.47;100044.25;5070081;28;20194;-62
2023/05/12 06:08:27;;;;;;;21.43;10.03;;;;;;;20.51;68.27;100043.81;5059355;28;20210;-63
2023/05/12 06:10:52;;;;;;;17.00;10.27;;;;;;;20.33;67.26;100043.75;5070714;28;20171;-63
2023/05/12 06:13:18;;;;;;;11.83;9.60;;;;;;;20.29;66.09;100047.78;5068878;28;20191;-62
2023/05/12 06:15:43;;;;;;;16.53;10.10;;;;;;;20.18;65.48;100049.75;5049852;28;20639;-62
2023/05/12 06:18:09;;;;;;;14.63;10.50;;;;;;;20.16;65.43;100047.28;5067211;28;20653;-62
2023/05/12 06:20:34;;;;;;;10.63;8.83;;;;;;;20.13;65.98;100056.69;5070138;28;20191;-63
2023/05/12 06:23:00;;;;;;;14.00;9.90;;;;;;;20.07;64.90;100057.44;5069859;28;20233;-62
2023/05/12 06:25:25;;;;;;;16.33;10.20;;;;;;;20.05;64.26;100057.81;5068069;28;20187;-63
2023/05/12 06:27:54;;;;;;;14.13;10.53;;;;;;;20.07;63.99;100064.00;5070291;28;20416;-62
2023/05/12 06:30:19;;;;;;;14.97;10.40;;;;;;;19.99;64.38;100056.53;5068187;28;20159;-62
2023/05/12 06:32:45;;;;;;;16.70;10.63;;;;;;;19.95;63.61;100057.72;5042776;28;20896;-63
2023/05/12 06:35:11;;;;;;;11.90;8.87;;;;;;;20.02;64.99;100058.59;5051075;28;20232;-62
2023/05/12 06:37:37;;;;;;;14.73;10.30;;;;;;;20.05;64.56;100063.56;5072495;28;20202;-62
2023/05/12 06:40:03;;;;;;;16.23;10.23;;;;;;;20.04;64.29;100061.91;5071949;28;20438;-62
2023/05/12 06:42:28;;;;;;;13.43;9.53;;;;;;;20.08;63.85;100065.66;5051120;28;20456;-62
2023/05/12 06:44:54;;;;;;;13.63;9.07;;;;;;;20.10;63.21;100065.25;5071103;28;20206;-62
2023/05/12 06:47:19;;;;;;;12.87;9.00;;;;;;;20.07;62.93;100064.00;5059897;28;20580;-63
2023/05/12 06:49:45;;;;;;;14.80;8.53;;;;;;;20.08;63.43;100068.53;5048194;28;20542;-62
2023/05/12 06:52:10;;;;;;;13.20;8.40;;;;;;;20.07;63.47;100069.72;5068230;28;20501;-62
2023/05/12 06:54:36;;;;;;;12.97;9.13;;;;;;;20.05;62.96;100074.19;5069406;28;20608;-62
2023/05/12 06:57:01;;;;;;;13.53;7.83;;;;;;;20.01;62.26;100068.41;5068638;28;20198;-62
2023/05/12 06:59:27;;;;;;;11.30;7.63;;;;;;;20.04;62.57;100075.41;5069270;28;20210;-61
2023/05/12 07:01:52;;;;;;;10.17;7.80;;;;;;;20.05;62.21;100075.00;5068999;28;20859;-61
2023/05/12 07:04:18;;;;;;;11.07;7.10;;;;;;;20.07;61.90;100064.00;5051189;28;20823;-62
2023/05/12 07:06:43;;;;;;;8.17;5.83;;;;;;;20.10;63.38;100074.69;5065051;28;20187;-62
2023/05/12 07:09:08;;;;;;;8.17;5.67;;;;;;;20.14;63.75;100075.53;5049658;28;20192;-63
2023/05/12 07:11:34;;;;;;;8.87;5.97;;;;;;;20.05;63.75;100075.00;5049178;28;20191;-62
2023/05/12 07:14:00;;;;;;;8.43;5.27;;;;;;;20.05;63.90;100069.28;5069470;28;20178;-62
2023/05/12 07:16:25;;;;;;;7.87;4.80;;;;;;;20.02;63.54;100070.06;5069038;28;20171;-62
2023/05/12 07:18:51;;;;;;;10.23;4.63;;;;;;;20.03;63.09;100071.72;5069035;28;20190;-62
2023/05/12 07:21:16;;;;;;;7.80;4.67;;;;;;;20.02;63.19;100067.19;5069169;28;20183;-62
2023/05/12 07:23:41;;;;;;;10.03;4.70;;;;;;;20.02;63.01;100072.94;5062376;28;20595;-62
2023/05/12 07:26:07;;;;;;;7.77;4.20;;;;;;;19.98;62.62;100068.41;5068664;28;20225;-63
2023/05/12 07:28:36;;;;;;;5.13;3.60;;;;;;;20.03;63.06;100068.88;5051033;28;20179;-63
2023/05/12 07:31:08;;;;;;;6.03;4.10;;;;;;;20.04;63.13;100067.66;5065489;28;20195;-62
2023/05/12 07:33:34;;;;;;;6.87;4.23;;;;;;;20.02;63.06;100069.25;5050439;28;20571;-62
2023/05/12 07:36:00;;;;;;;9.90;3.77;;;;;;;20.02;63.05;100072.94;5048940;28;20912;-63
2023/05/12 07:38:25;;;;;;;5.93;3.70;;;;;;;20.04;63.21;100073.38;5067310;28;20240;-60
2023/05/12 07:40:51;;;;;;;6.53;3.87;;;;;;;20.01;63.54;100068.41;5054526;28;20213;-60
2023/05/12 07:43:16;;;;;;;8.40;4.10;;;;;;;20.01;63.82;100079.88;5034715;28;20245;-60
2023/05/12 07:45:42;;;;;;;6.70;3.73;;;;;;;20.02;64.49;100070.06;5048310;28;20164;-59
2023/05/12 07:48:10;;;;;;;9.30;3.87;;;;;;;20.05;64.44;100066.41;5064796;28;20270;-60
2023/05/12 07:50:35;;;;;;;8.33;3.47;;;;;;;20.06;64.50;100072.97;5051239;28;20435;-61
2023/05/12 07:53:01;;;;;;;6.63;3.50;;;;;;;20.08;64.52;100064.84;5068164;28;20921;-60
2023/05/12 07:55:26;;;;;;;4.60;3.03;;;;;;;20.08;64.60;100068.53;5071142;28;20175;-61
2023/05/12 07:57:52;;;;;;;6.50;3.00;;;;;;;20.10;64.47;100071.81;5070523;28;20531;-60
2023/05/12 08:00:17;;;;;;;8.40;3.27;;;;;;;20.10;64.40;100066.09;5067190;28;20206;-60
2023/05/12 08:02:43;;;;;;;5.20;2.90;;;;;;;20.10;64.57;100066.09;5086656;28;20214;-60
2023/05/12 08:05:09;;;;;;;4.50;2.77;;;;;;;20.11;64.48;100064.06;5084367;28;20187;-61
2023/05/12 08:07:35;;;;;;;3.90;1.87;;;;;;;20.10;64.69;100066.09;5062623;28;20237;-60
2023/05/12 08:10:01;;;;;;;7.33;2.67;;;;;;;20.09;64.70;100061.56;5068125;28;20401;-60
2023/05/12 08:12:27;;;;;;;5.53;2.23;;;;;;;20.09;64.66;100067.31;5067495;28;20499;-60
2023/05/12 08:14:53;;;;;;;4.70;2.43;;;;;;;20.10;64.77;100063.22;5068027;28;20878;-60
2023/05/12 08:17:18;;;;;;;7.20;2.17;;;;;;;20.09;65.14;100057.88;5067911;28;20229;-61
2023/05/12 08:19:44;;;;;;;10.53;2.53;;;;;;;20.08;65.15;100059.94;5048399;28;20260;-60
2023/05/12 08:22:09;;;;;;;5.40;2.63;;;;;;;20.10;65.07;100066.09;5050005;28;20995;-60
2023/05/12 08:24:35;;;;;;;4.73;2.60;;;;;;;20.10;65.01;100068.94;5067517;28;20587;-59
2023/05/12 08:27:00;;;;;;;5.77;2.40;;;;;;;20.10;64.98;100065.25;5067903;28;20560;-60
2023/05/12 08:29:25;;;;;;;5.97;2.53;;;;;;;20.08;65.10;100059.94;5049624;28;20190;-60
2023/05/12 08:31:51;;;;;;;6.90;2.20;;;;;;;20.07;65.20;100066.88;5048853;28;20190;-61
2023/05/12 08:34:17;;;;;;;4.20;2.17;;;;;;;20.07;65.41;100064.00;5067761;28;20168;-60
2023/05/12 08:36:42;;;;;;;6.20;2.60;;;;;;;20.10;65.08;100059.50;5069203;28;20190;-60
2023/05/12 08:39:11;;;;;;;4.93;2.20;;;;;;;20.09;65.51;100064.44;5067637;28;20194;-60
2023/05/12 08:41:43;;;;;;;3.90;2.10;;;;;;;20.09;65.39;100067.31;5050569;28;20189;-60
2023/05/12 08:44:10;;;;;;;6.53;2.20;;;;;;;20.09;65.49;100063.59;5063901;28;20444;-60
2023/05/12 08:46:35;;;;;;;4.80;2.20;;;;;;;20.08;65.55;100067.69;5067428;28;20409;-61
2023/05/12 08:49:01;;;;;;;5.07;2.00;;;;;;;20.09;65.46;100070.16;5066523;28;20483;-61
2023/05/12 08:51:27;;;;;;;3.47;1.70;;;;;;;20.08;65.41;100068.53;5067046;28;20617;-60
2023/05/12 08:53:52;;;;;;;6.20;2.90;;;;;;;20.10;65.51;100071.81;5067524;28;20277;-60
2023/05/12 08:56:18;;;;;;;2.90;2.00;;;;;;;20.09;65.63;100070.16;5065466;28;20442;-60
2023/05/12 08:58:44;;;;;;;3.43;2.03;;;;;;;20.11;66.05;100073.44;5065628;28;20337;-60
2023/05/12 09:01:10;;;;;;;3.80;2.00;;;;;;;20.09;65.59;100075.91;5024913;28;20528;-63
2023/05/12 09:03:35;;;;;;;4.97;2.47;;;;;;;20.08;65.69;100077.13;5048169;28;20198;-60
2023/05/12 09:06:02;;;;;;;4.30;1.83;;;;;;;20.09;65.85;100066.47;5058661;28;20190;-60
2023/05/12 09:08:29;;;;;;;4.90;2.03;;;;;;;20.09;65.79;100075.06;5048876;28;20672;-61
2023/05/12 09:10:55;;;;;;;3.67;1.80;;;;;;;20.09;66.01;100075.06;5067977;28;20497;-60
2023/05/12 09:13:46;;;;;;;4.17;1.97;;;;;;;20.10;66.14;100065.25;5066788;28;20460;-60
2023/05/12 09:16:12;;;;;;;4.20;2.30;;;;;;;20.09;66.05;100058.72;5054312;28;20434;-60
2023/05/12 09:18:54;;;;;;;5.17;1.97;;;;;;;20.09;66.14;100069.34;5034230;28;20564;-61
2023/05/12 09:21:20;;;;;;;3.50;1.97;;;;;;;20.09;65.98;100066.47;5047655;28;20662;-61
2023/05/12 09:23:59;;;;;;;3.00;2.00;;;;;;;20.09;66.01;100063.59;5066196;28;20445;-60
2023/05/12 09:26:26;;;;;;;10.77;1.93;;;;;;;20.10;66.04;100063.22;5067070;28;20185;-60
2023/05/12 09:28:52;;;;;;;4.43;2.00;;;;;;;20.11;65.80;100067.72;5066505;28;20461;-61
2023/05/12 09:31:19;;;;;;;3.60;2.10;;;;;;;20.10;66.32;100070.97;5048683;28;20414;-61
2023/05/12 09:33:44;;;;;;;5.53;1.87;;;;;;;20.10;66.19;100065.25;5049065;28;20838;-61
2023/05/12 09:36:11;;;;;;;4.03;1.80;;;;;;;20.09;66.20;100066.47;5048199;28;20429;-61
2023/05/12 09:38:36;;;;;;;2.40;1.60;;;;;;;20.10;66.24;100066.09;5047676;28;20203;-60
2023/05/12 09:41:02;;;;;;;3.50;1.93;;;;;;;20.11;66.10;100064.84;5043533;28;20812;-61
2023/05/12 09:43:27;;;;;;;3.13;1.90;;;;;;;20.09;66.12;100061.56;5065165;28;20183;-61
2023/05/12 09:45:54;;;;;;;4.80;2.00;;;;;;;20.10;66.32;100063.22;5066895;28;20183;-62
2023/05/12 09:48:20;;;;;;;3.57;1.50;;;;;;;20.10;66.34;100070.97;5065763;28;20183;-61
2023/05/12 09:50:48;;;;;;;6.60;1.67;;;;;;;20.10;66.44;100071.81;5067444;28;20436;-60
2023/05/12 09:53:16;;;;;;;4.47;1.87;;;;;;;20.09;66.13;100067.31;5067140;28;20425;-61
2023/05/12 09:55:43;;;;;;;2.53;1.70;;;;;;;20.09;66.42;100067.31;5048042;28;20452;-61
2023/05/12 09:58:09;;;;;;;3.87;1.80;;;;;;;20.08;66.45;100068.53;5069788;28;20409;-60
2023/05/12 10:00:37;;;;;;;3.17;1.53;;;;;;;20.10;66.18;100065.25;5052559;28;20437;-61
2023/05/12 10:03:08;;;;;;;2.17;1.43;;;;;;;20.11;66.20;100058.31;5059631;28;20439;-61
2023/05/12 10:05:33;;;;;;;3.10;1.53;;;;;;;20.10;66.38;100074.69;5069263;28;20425;-61
2023/05/12 10:07:59;;;;;;;3.13;2.03;;;;;;;20.09;66.50;100066.47;5049691;28;20472;-61
2023/05/12 10:10:25;;;;;;;3.77;2.33;;;;;;;20.08;66.42;100061.97;5050329;28;20175;-61
2023/05/12 10:12:50;;;;;;;3.40;1.73;;;;;;;20.08;66.36;100062.81;5067017;28;20187;-60
2023/05/12 10:15:16;;;;;;;3.97;1.60;;;;;;;20.08;66.52;100068.53;5068298;28;20163;-61
2023/05/12 10:17:42;;;;;;;3.13;2.17;;;;;;;20.07;66.63;100066.88;5033736;28;20223;-62
2023/05/12 10:20:08;;;;;;;2.60;1.80;;;;;;;20.09;66.83;100066.47;5068952;28;20565;-62
2023/05/12 10:22:34;;;;;;;2.83;1.53;;;;;;;20.07;66.50;100061.13;5051505;28;20956;-59
2023/05/12 10:25:02;;;;;;;3.33;2.00;;;;;;;20.07;66.64;100058.25;5035675;28;20410;-61
2023/05/12 10:27:28;;;;;;;2.80;1.97;;;;;;;20.07;66.75;100061.13;5069614;28;20179;-61
2023/05/12 10:29:54;;;;;;;2.50;2.00;;;;;;;20.08;66.57;100061.97;5070667;28;20987;-62
2023/05/12 10:32:19;;;;;;;2.80;2.10;;;;;;;20.05;66.83;100054.94;5034343;28;20185;-61
2023/05/12 10:34:45;;;;;;;2.30;1.40;;;;;;;20.06;66.68;100064.38;5051366;28;20180;-61
2023/05/12 10:37:11;;;;;;;3.50;1.70;;;;;;;20.07;66.62;100063.16;5071579;28;20185;-62
2023/05/12 10:39:37;;;;;;;2.53;1.67;;;;;;;20.07;67.07;100057.44;5015956;28;20199;-61
2023/05/12 10:42:06;;;;;;;2.10;1.50;;;;;;;20.08;66.56;100050.50;5052550;28;20206;-61
2023/05/12 10:44:31;;;;;;;3.30;1.93;;;;;;;20.07;66.30;100055.41;5069918;28;20417;-61
2023/05/12 10:46:58;;;;;;;3.37;1.90;;;;;;;20.07;66.61;100055.41;5069934;28;20455;-61
2023/05/12 10:49:35;;;;;;;5.60;1.80;;;;;;;20.06;66.68;100059.47;5069118;28;20190;-61
2023/05/12 10:52:00;;;;;;;4.37;1.83;;;;;;;20.07;67.17;100054.56;5069670;28;20440;-60
2023/05/12 10:54:26;;;;;;;3.40;1.77;;;;;;;20.06;66.64;100053.72;5068950;28;20437;-61
2023/05/12 10:56:52;;;;;;;5.00;2.23;;;;;;;20.06;66.81;100056.59;5069823;28;20203;-61
2023/05/12 10:59:23;;;;;;;4.10;1.90;;;;;;;20.06;66.59;100053.72;5070053;28;20187;-62
2023/05/12 11:02:04;;;;;;;3.50;1.93;;;;;;;20.06;66.56;100055.78;5051610;28;20278;-61
2023/05/12 11:04:45;;;;;;;3.87;1.77;;;;;;;20.04;66.80;100050.44;5068460;28;20467;-61
2023/05/12 11:07:12;;;;;;;7.10;2.00;;;;;;;20.06;66.96;100050.88;5049738;28;20468;-61
2023/05/12 11:09:39;;;;;;;3.20;1.83;;;;;;;20.06;66.63;100050.88;5023666;28;20868;-62
2023/05/12 11:12:06;;;;;;;4.27;1.77;;;;;;;20.06;66.94;100061.53;5048961;28;20411;-62
2023/05/12 11:14:32;;;;;;;2.57;1.77;;;;;;;20.04;66.92;100056.19;5055821;28;20433;-60
2023/05/12 11:16:58;;;;;;;2.67;1.47;;;;;;;20.04;66.72;100056.19;5068401;28;20503;-61
2023/05/12 11:19:23;;;;;;;2.70;1.80;;;;;;;20.05;66.73;100060.69;5051656;28;20449;-61